Time;durP1;ratioP1;P1;durP2;ratioP2;P2;SDS_P1;SDS_P2;PMS_P1;PMS_P2;Temp;Humidity;BMP_temperature;BMP_pressure;BME280_temperature;BME280_humidity;BME280_pressure;Samples;Min_cycle;Max_cycle;Signal;HPM_P1;HPM_P2
2021/10/12 00:00:33;;;;;;;;;7.50;6.75;;;;;14.15;49.73;102253.72;5101057;27;45248;-51
2021/10/12 00:02:58;;;;;;;;;7.25;6.25;;;;;14.13;49.33;102256.34;5101086;27;45365;-51
2021/10/12 00:05:24;;;;;;;;;9.00;8.00;;;;;14.12;49.83;102249.31;5100960;27;45330;-48
2021/10/12 00:07:49;;;;;;;;;7.50;5.50;;;;;14.09;49.56;102251.09;5100821;27;45359;-50
2021/10/12 00:10:15;;;;;;;;;8.00;5.75;;;;;14.08;49.38;102239.63;5100730;27;45383;-52
2021/10/12 00:12:40;;;;;;;;;10.50;8.50;;;;;14.07;50.05;102239.66;5100763;27;45189;-53
2021/10/12 00:15:06;;;;;;;;;5.25;4.00;;;;;14.06;49.56;102256.38;5082473;27;45251;-50
2021/10/12 00:17:32;;;;;;;;;7.75;6.00;;;;;14.02;49.82;102252.00;5095945;27;47201;-52
2021/10/12 00:19:58;;;;;;;;;7.25;5.75;;;;;14.02;49.62;102254.66;5100702;27;45430;-51
2021/10/12 00:22:23;;;;;;;;;5.00;5.00;;;;;14.00;49.44;102259.06;5100961;27;45236;-51
2021/10/12 00:24:48;;;;;;;;;8.00;6.75;;;;;13.98;49.67;102252.00;5100452;27;45404;-51
2021/10/12 00:27:14;;;;;;;;;6.50;4.50;;;;;13.96;49.96;102253.81;5100507;27;45292;-53
2021/10/12 00:29:39;;;;;;;;;9.25;7.25;;;;;13.95;49.67;102254.69;5100724;27;45166;-53
2021/10/12 00:32:05;;;;;;;;;8.25;7.25;;;;;13.95;49.67;102267.03;5100705;27;45303;-51
2021/10/12 00:34:31;;;;;;;;;6.50;6.00;;;;;13.92;49.82;102265.28;5100917;27;45357;-53
2021/10/12 00:36:56;;;;;;;;;7.50;6.50;;;;;13.88;49.96;102255.59;5100358;27;45988;-53
2021/10/12 00:39:21;;;;;;;;;5.00;3.75;;;;;13.90;50.17;102260.84;5100359;27;45233;-52
2021/10/12 00:41:48;;;;;;;;;9.75;7.25;;;;;13.88;49.67;102245.00;5100610;27;45290;-50
2021/10/12 00:44:13;;;;;;;;;8.25;5.50;;;;;13.87;50.29;102248.53;5100280;27;45443;-52
2021/10/12 00:46:39;;;;;;;;;10.00;7.25;;;;;13.85;49.88;102244.13;5100340;27;45289;-52
2021/10/12 00:49:04;;;;;;;;;9.00;7.75;;;;;13.84;49.88;102247.69;5100360;27;45375;-51
2021/10/12 00:51:30;;;;;;;;;6.75;6.25;;;;;13.83;50.15;102246.78;5100653;27;45221;-52
2021/10/12 00:53:55;;;;;;;;;7.25;6.00;;;;;13.80;50.35;102238.91;5100234;27;45276;-53
2021/10/12 00:56:22;;;;;;;;;8.00;6.25;;;;;13.79;50.44;102232.72;5081947;27;46009;-55
2021/10/12 00:58:48;;;;;;;;;6.75;6.75;;;;;13.78;50.38;102230.09;5099989;27;45239;-51
2021/10/12 01:01:13;;;;;;;;;6.50;6.00;;;;;13.76;50.07;102231.84;5084897;27;45262;-51
2021/10/12 01:03:39;;;;;;;;;7.00;6.25;;;;;13.75;50.50;102219.53;5103835;27;45288;-51
2021/10/12 01:06:05;;;;;;;;;8.50;7.50;;;;;13.74;50.05;102225.72;5103729;27;45232;-51
2021/10/12 01:08:31;;;;;;;;;7.75;5.50;;;;;13.73;50.08;102216.00;5103714;27;45347;-53
2021/10/12 01:10:57;;;;;;;;;10.00;7.00;;;;;13.69;50.22;102211.63;5103712;27;45476;-52
2021/10/12 01:13:23;;;;;;;;;7.50;6.00;;;;;13.70;50.00;102216.91;5103614;27;45321;-51
2021/10/12 01:15:50;;;;;;;;;7.00;6.00;;;;;13.68;50.56;102215.16;5103389;27;46250;-52
2021/10/12 01:18:15;;;;;;;;;7.50;7.25;;;;;13.67;50.21;102210.75;5103492;27;45221;-52
2021/10/12 01:20:41;;;;;;;;;5.00;5.00;;;;;13.64;50.57;102207.22;5103496;27;45238;-52
2021/10/12 01:23:08;;;;;;;;;7.25;6.00;;;;;13.65;50.50;102194.91;5103670;27;45162;-50
2021/10/12 01:25:33;;;;;;;;;8.50;8.50;;;;;13.63;50.44;102196.69;5103117;27;46339;-52
2021/10/12 01:28:00;;;;;;;;;7.75;7.00;;;;;13.62;50.64;102198.44;5103301;27;45318;-52
2021/10/12 01:30:25;;;;;;;;;7.75;7.50;;;;;13.61;50.51;102199.31;5103515;27;45394;-52
2021/10/12 01:32:51;;;;;;;;;9.50;9.00;;;;;13.59;50.17;102201.09;5103487;27;45450;-51
2021/10/12 01:35:16;;;;;;;;;6.00;6.00;;;;;13.55;50.48;102191.44;5084801;27;46012;-53
2021/10/12 01:37:42;;;;;;;;;6.00;6.00;;;;;13.55;50.36;102183.50;5103213;27;45264;-50
2021/10/12 01:40:10;;;;;;;;;7.25;7.25;;;;;13.55;50.71;102180.88;5103185;27;45315;-51
2021/10/12 01:42:36;;;;;;;;;7.00;6.50;;;;;13.53;50.20;102179.97;5084765;27;45439;-50
2021/10/12 01:45:05;;;;;;;;;8.75;6.00;;;;;13.52;50.65;102172.97;5102920;27;45442;-53
2021/10/12 01:47:30;;;;;;;;;7.25;7.00;;;;;13.44;50.61;102157.13;5084767;27;45812;-51
2021/10/12 01:49:56;;;;;;;;;7.25;6.25;;;;;13.46;50.60;102144.81;5103194;27;45251;-50
2021/10/12 01:52:22;;;;;;;;;8.00;7.25;;;;;13.47;50.40;102143.03;5103093;27;45339;-52
2021/10/12 01:54:47;;;;;;;;;9.00;6.75;;;;;13.44;50.34;102137.78;5102891;27;46321;-52
2021/10/12 01:57:13;;;;;;;;;8.25;6.75;;;;;13.42;50.90;102148.34;5102954;27;45260;-51
2021/10/12 01:59:38;;;;;;;;;7.00;7.00;;;;;13.41;50.87;102156.25;5102853;27;45457;-53
2021/10/12 02:02:04;;;;;;;;;9.50;8.00;;;;;13.39;50.49;102155.41;5102945;27;45307;-53
2021/10/12 02:04:31;;;;;;;;;10.00;7.25;;;;;13.37;50.65;102147.50;5102821;27;46242;-51
2021/10/12 02:06:57;;;;;;;;;8.00;7.50;;;;;13.35;50.83;102154.50;5102892;27;45215;-53
2021/10/12 02:09:22;;;;;;;;;7.25;5.50;;;;;13.33;50.61;102154.50;5084249;27;45383;-52
2021/10/12 02:11:48;;;;;;;;;9.00;7.00;;;;;13.31;50.98;102158.03;5083700;27;45580;-50
2021/10/12 02:14:13;;;;;;;;;6.75;6.00;;;;;13.29;50.74;102165.06;5102422;27;46438;-51
2021/10/12 02:16:39;;;;;;;;;10.50;8.50;;;;;13.28;50.78;102169.47;5102566;27;45241;-52
2021/10/12 02:19:05;;;;;;;;;8.50;8.00;;;;;13.26;51.13;102165.09;5102687;27;45279;-52
2021/10/12 02:21:30;;;;;;;;;7.75;7.75;;;;;13.23;51.14;102163.34;5102596;27;45451;-51
2021/10/12 02:23:56;;;;;;;;;8.25;8.00;;;;;13.22;50.88;102151.00;5101982;27;46156;-53
2021/10/12 02:26:22;;;;;;;;;8.25;6.50;;;;;13.23;50.87;102154.53;5102592;27;45307;-52
2021/10/12 02:28:47;;;;;;;;;8.50;7.75;;;;;13.20;50.83;102150.13;5102452;27;45341;-52
2021/10/12 02:31:13;;;;;;;;;8.25;8.25;;;;;13.18;51.01;102143.97;5102336;27;45299;-50
2021/10/12 02:33:38;;;;;;;;;6.75;6.25;;;;;13.17;50.96;102140.47;5102214;27;45776;-53
2021/10/12 02:36:04;;;;;;;;;8.25;6.50;;;;;13.17;51.21;102129.03;5102315;27;45311;-53
2021/10/12 02:38:29;;;;;;;;;9.00;6.75;;;;;13.16;51.21;102127.28;5082678;27;45257;-53
2021/10/12 02:40:55;;;;;;;;;9.25;8.00;;;;;13.13;51.26;102122.88;5102451;27;45558;-51
2021/10/12 02:43:21;;;;;;;;;8.25;6.75;;;;;13.13;51.04;102137.81;5101941;27;46095;-53
2021/10/12 02:45:46;;;;;;;;;8.00;7.00;;;;;13.04;50.92;102122.91;5102231;27;45280;-49
2021/10/12 02:48:11;;;;;;;;;7.00;7.00;;;;;13.11;51.42;102142.25;5084084;27;45247;-53
2021/10/12 02:50:37;;;;;;;;;9.25;7.50;;;;;13.10;51.13;102137.84;5102111;27;45481;-53
2021/10/12 02:53:02;;;;;;;;;9.50;7.25;;;;;13.09;51.44;102136.09;5101931;27;46101;-52
2021/10/12 02:55:28;;;;;;;;;6.00;6.00;;;;;13.08;51.15;102134.31;5101862;27;45269;-49
2021/10/12 02:57:53;;;;;;;;;8.00;8.00;;;;;13.06;51.14;102126.41;5101793;27;45278;-52
2021/10/12 03:00:18;;;;;;;;;9.00;8.00;;;;;13.03;51.10;102122.91;5102105;27;45208;-51
2021/10/12 03:02:44;;;;;;;;;6.50;6.50;;;;;13.06;51.31;102130.84;5101758;27;46104;-51
2021/10/12 03:05:10;;;;;;;;;7.50;7.50;;;;;13.04;51.38;102129.94;5102071;27;45236;-53
2021/10/12 03:07:35;;;;;;;;;8.00;8.00;;;;;13.05;51.37;102134.34;5101875;27;45341;-52
2021/10/12 03:10:02;;;;;;;;;6.00;6.00;;;;;13.03;51.29;102120.25;5101817;27;45381;-52
2021/10/12 03:12:28;;;;;;;;;7.75;7.50;;;;;13.01;51.30;102118.50;5101538;27;46319;-53
2021/10/12 03:14:53;;;;;;;;;9.00;7.00;;;;;13.01;51.63;102126.41;5101701;27;45440;-54
2021/10/12 03:17:18;;;;;;;;;7.50;6.00;;;;;13.00;51.31;102134.34;5101752;27;45371;-51
2021/10/12 03:19:44;;;;;;;;;6.75;6.75;;;;;12.98;51.58;102131.72;5101775;27;45303;-51
2021/10/12 03:22:14;;;;;;;;;7.50;6.00;;;;;12.99;51.47;102143.13;5101468;27;45375;-51
2021/10/12 03:24:40;;;;;;;;;10.25;7.50;;;;;12.97;51.31;102134.38;5083002;27;45358;-51
2021/10/12 03:27:08;;;;;;;;;10.00;7.25;;;;;12.98;51.29;102128.19;5101543;27;45450;-52
2021/10/12 03:29:33;;;;;;;;;9.25;8.00;;;;;12.97;51.60;102121.16;5101532;27;45464;-51
2021/10/12 03:31:59;;;;;;;;;7.25;6.25;;;;;12.96;51.51;102104.44;5101376;27;46587;-53
2021/10/12 03:34:26;;;;;;;;;6.00;6.00;;;;;12.95;51.68;102092.13;5101435;27;45331;-52
2021/10/12 03:36:52;;;;;;;;;7.25;6.50;;;;;12.95;51.69;102102.69;5101354;27;45429;-53
2021/10/12 03:39:17;;;;;;;;;9.00;8.00;;;;;12.93;51.53;102096.56;5101058;27;45216;-51
2021/10/12 03:41:43;;;;;;;;;12.50;9.00;;;;;12.94;51.91;102103.59;5101115;27;46174;-52
2021/10/12 03:44:08;;;;;;;;;9.75;8.00;;;;;12.92;51.51;102102.69;5101195;27;45217;-53
2021/10/12 03:46:33;;;;;;;;;11.75;8.50;;;;;12.90;51.64;102106.22;5101348;27;45294;-53
2021/10/12 03:48:59;;;;;;;;;6.75;6.75;;;;;12.65;51.76;102064.06;5101084;27;45225;-50
2021/10/12 03:51:24;;;;;;;;;9.75;8.00;;;;;12.90;51.84;102103.59;5101227;27;45455;-53
2021/10/12 03:53:49;;;;;;;;;8.00;7.00;;;;;12.88;51.92;102103.59;5100936;27;45220;-52
2021/10/12 03:56:15;;;;;;;;;6.00;6.00;;;;;12.88;51.81;102111.50;5101344;27;45471;-54
2021/10/12 03:58:41;;;;;;;;;9.50;9.50;;;;;12.87;51.77;102101.84;5100718;27;45520;-52
2021/10/12 04:01:06;;;;;;;;;9.00;8.00;;;;;12.84;51.71;102100.09;5100911;27;45335;-53
2021/10/12 04:03:32;;;;;;;;;8.75;8.25;;;;;12.85;51.79;102106.22;5100881;27;45429;-51
2021/10/12 04:05:57;;;;;;;;;10.50;7.50;;;;;12.79;51.81;102090.41;5101089;27;45253;-54
2021/10/12 04:08:22;;;;;;;;;8.50;6.50;;;;;12.81;51.90;102092.16;5100786;27;45298;-51
2021/10/12 04:10:48;;;;;;;;;8.00;6.00;;;;;12.80;51.90;102095.72;5100730;27;46422;-53
2021/10/12 04:13:13;;;;;;;;;8.25;6.00;;;;;12.80;51.83;102089.53;5100706;27;45315;-53
2021/10/12 04:15:39;;;;;;;;;6.75;6.75;;;;;12.79;51.86;102093.03;5082571;27;45331;-52
2021/10/12 04:18:04;;;;;;;;;10.00;9.00;;;;;12.78;52.11;102102.72;5100774;27;45308;-49
2021/10/12 04:20:30;;;;;;;;;8.50;7.00;;;;;12.76;52.03;102104.47;5100682;27;46915;-53
2021/10/12 04:22:57;;;;;;;;;9.25;8.75;;;;;12.74;51.73;102093.06;5100659;27;45360;-53
2021/10/12 04:25:22;;;;;;;;;8.25;6.75;;;;;12.74;51.88;102101.00;5100458;27;45276;-53
2021/10/12 04:27:48;;;;;;;;;14.25;9.00;;;;;12.72;51.98;102101.88;5100527;27;45252;-52
2021/10/12 04:30:13;;;;;;;;;10.00;8.25;;;;;12.70;51.99;102090.44;5100428;27;46160;-54
2021/10/12 04:32:39;;;;;;;;;10.50;10.25;;;;;12.70;51.90;102090.44;5100765;27;45202;-53
2021/10/12 04:35:05;;;;;;;;;7.75;6.00;;;;;12.66;52.18;102090.41;5101697;27;45266;-51
2021/10/12 04:37:31;;;;;;;;;7.00;7.00;;;;;12.68;51.95;102101.84;5104466;27;45350;-53
2021/10/12 04:39:56;;;;;;;;;7.00;6.25;;;;;12.68;51.87;102098.34;5103667;27;46141;-54
2021/10/12 04:42:22;;;;;;;;;8.50;6.75;;;;;12.67;52.30;102096.59;5104260;27;45422;-53
2021/10/12 04:44:49;;;;;;;;;12.25;11.25;;;;;12.67;52.12;102096.59;5104345;27;45327;-54
2021/10/12 04:47:16;;;;;;;;;8.75;8.00;;;;;12.66;52.16;102087.78;5104048;27;45346;-52
2021/10/12 04:49:41;;;;;;;;;7.50;6.25;;;;;12.65;51.69;102095.72;5103701;27;45525;-51
2021/10/12 04:52:07;;;;;;;;;10.00;7.75;;;;;12.65;52.03;102096.59;5085767;27;45288;-51
2021/10/12 04:54:32;;;;;;;;;12.50;11.25;;;;;12.64;52.29;102096.59;5103905;27;45248;-52
2021/10/12 04:56:57;;;;;;;;;8.25;7.75;;;;;12.62;52.15;102088.69;5103848;27;45385;-52
2021/10/12 04:59:23;;;;;;;;;9.00;8.00;;;;;12.63;51.99;102098.34;5103608;27;45223;-52
2021/10/12 05:01:48;;;;;;;;;9.25;8.00;;;;;12.62;52.16;102093.94;5103912;27;45246;-51
2021/10/12 05:04:14;;;;;;;;;7.00;7.00;;;;;12.61;52.23;102102.75;5104179;27;45213;-53
2021/10/12 05:06:39;;;;;;;;;10.25;7.75;;;;;12.60;52.10;102101.00;5104032;27;45307;-53
2021/10/12 05:09:04;;;;;;;;;14.00;10.00;;;;;12.60;52.31;102103.66;5103466;27;46086;-51
2021/10/12 05:11:30;;;;;;;;;10.75;9.75;;;;;12.59;52.29;102106.25;5103676;27;45145;-53
2021/10/12 05:13:56;;;;;;;;;10.00;10.00;;;;;12.57;52.05;102098.34;5103771;27;45951;-52
2021/10/12 05:16:22;;;;;;;;;9.00;8.50;;;;;12.56;52.34;102096.59;5085310;27;45497;-52
2021/10/12 05:18:50;;;;;;;;;10.75;8.00;;;;;12.56;52.18;102087.81;5103335;27;45402;-52
2021/10/12 05:21:15;;;;;;;;;9.50;9.00;;;;;12.54;52.10;102101.00;5103640;27;45230;-53
2021/10/12 05:23:41;;;;;;;;;11.00;11.00;;;;;12.54;52.62;102094.84;5103211;27;45300;-53
2021/10/12 05:26:06;;;;;;;;;18.25;12.00;;;;;12.52;52.12;102092.22;5103591;27;45586;-51
2021/10/12 05:28:35;;;;;;;;;21.50;17.00;;;;;12.52;52.44;102092.22;5103230;27;45240;-51
2021/10/12 05:31:00;;;;;;;;;17.25;17.25;;;;;12.49;52.25;102090.47;5103482;27;45465;-53
2021/10/12 05:33:26;;;;;;;;;11.75;10.50;;;;;12.49;52.47;102081.66;5103328;27;45416;-51
2021/10/12 05:35:51;;;;;;;;;12.25;10.25;;;;;12.47;52.39;102100.13;5085151;27;45682;-51
2021/10/12 05:38:20;;;;;;;;;10.00;9.00;;;;;12.47;52.35;102088.72;5084579;27;47195;-51
2021/10/12 05:40:47;;;;;;;;;10.00;10.00;;;;;12.46;52.38;102093.06;5103390;27;45307;-54
2021/10/12 05:43:13;;;;;;;;;10.75;9.75;;;;;12.44;52.43;102091.31;5103133;27;45236;-53
2021/10/12 05:45:38;;;;;;;;;8.25;7.75;;;;;12.44;52.34;102099.22;5102940;27;45213;-52
2021/10/12 05:48:07;;;;;;;;;13.00;10.50;;;;;12.42;52.62;102101.00;5101807;27;47125;-52
2021/10/12 05:50:34;;;;;;;;;11.00;9.00;;;;;12.40;52.56;102101.03;5103014;27;45347;-53
2021/10/12 05:55:45;;;;;;;;;11.50;11.50;;;;;12.41;52.51;102083.44;5102922;27;45395;-52
2021/10/12 05:58:12;;;;;;;;;8.25;8.00;;;;;12.41;52.48;102091.34;5102306;27;46484;-52
2021/10/12 06:00:38;;;;;;;;;10.50;9.00;;;;;12.41;52.77;102086.94;5102860;27;45283;-52
2021/10/12 06:03:03;;;;;;;;;9.25;9.25;;;;;12.42;52.74;102079.94;5102860;27;45244;-53
2021/10/12 06:05:29;;;;;;;;;12.00;12.00;;;;;12.45;52.81;102090.44;5102941;27;45504;-53
2021/10/12 06:07:54;;;;;;;;;11.25;10.00;;;;;12.46;52.73;102092.22;5070441;27;47160;-53
2021/10/12 06:10:20;;;;;;;;;11.50;11.00;;;;;12.48;52.65;102095.75;5090288;27;45227;-53
2021/10/12 06:12:45;;;;;;;;;9.50;9.25;;;;;12.45;52.65;102083.44;5074723;27;45504;-51
2021/10/12 06:15:11;;;;;;;;;12.00;8.75;;;;;12.50;52.85;102080.78;5088251;27;45495;-53
2021/10/12 06:17:36;;;;;;;;;11.00;10.50;;;;;12.52;52.75;102081.66;5092239;27;45960;-54
2021/10/12 06:20:02;;;;;;;;;13.75;11.00;;;;;12.52;52.77;102081.66;5083660;27;45307;-55
2021/10/12 06:22:27;;;;;;;;;10.00;9.50;;;;;12.52;52.92;102086.94;5089221;27;45571;-54
2021/10/12 06:24:53;;;;;;;;;10.75;9.25;;;;;12.54;53.05;102074.66;5089469;27;45719;-52
2021/10/12 06:27:20;;;;;;;;;12.00;9.00;;;;;12.54;53.16;102079.91;5081078;27;45408;-58
2021/10/12 06:29:45;;;;;;;;;12.50;11.00;;;;;12.53;52.92;102078.16;5097213;27;45279;-53
2021/10/12 06:32:11;;;;;;;;;12.00;11.00;;;;;12.52;52.93;102077.25;5081866;27;45331;-53
2021/10/12 06:34:36;;;;;;;;;10.50;9.50;;;;;12.51;53.10;102087.81;5081783;27;45430;-54
2021/10/12 06:37:01;;;;;;;;;14.50;10.75;;;;;12.49;53.21;102084.28;5081544;27;46056;-51
2021/10/12 06:39:27;;;;;;;;;10.50;9.00;;;;;12.51;53.01;102085.19;5081873;27;45191;-51
2021/10/12 06:41:52;;;;;;;;;14.00;10.00;;;;;12.49;53.12;102098.38;5092374;27;45318;-53
2021/10/12 06:44:17;;;;;;;;;13.00;10.75;;;;;12.51;53.02;102095.72;5081819;27;45372;-52
2021/10/12 06:46:43;;;;;;;;;12.00;8.50;;;;;12.50;53.11;102096.59;5081515;27;45252;-53
2021/10/12 06:49:08;;;;;;;;;10.75;9.75;;;;;12.49;53.18;102093.09;5090621;27;45281;-52
2021/10/12 06:51:33;;;;;;;;;13.75;13.25;;;;;12.50;53.17;102100.13;5100663;27;45315;-53
2021/10/12 06:53:59;;;;;;;;;9.25;9.25;;;;;12.49;53.07;102094.84;5084192;27;45437;-53
2021/10/12 06:56:24;;;;;;;;;12.50;8.50;;;;;12.49;53.19;102097.47;5096707;27;46226;-52
2021/10/12 06:58:50;;;;;;;;;13.75;9.25;;;;;12.48;53.07;102096.59;5096122;27;45482;-53
2021/10/12 07:01:15;;;;;;;;;10.75;9.50;;;;;12.47;53.41;102102.75;5094067;27;45206;-52
2021/10/12 07:03:40;;;;;;;;;11.25;7.00;;;;;12.46;53.47;102102.75;5095299;27;45594;-53
2021/10/12 07:06:06;;;;;;;;;15.00;10.50;;;;;12.44;53.30;102101.88;5093569;27;46386;-53
2021/10/12 07:08:31;;;;;;;;;10.25;10.00;;;;;12.43;53.12;102100.13;5094854;27;45410;-54
2021/10/12 07:10:57;;;;;;;;;13.25;12.50;;;;;12.44;53.31;102104.50;5093728;27;45449;-53
2021/10/12 07:13:29;;;;;;;;;11.75;10.00;;;;;12.43;53.38;102098.38;5099596;27;45327;-53
2021/10/12 07:15:56;;;;;;;;;10.75;10.00;;;;;12.44;53.25;102100.13;5090869;27;46385;-55
2021/10/12 07:18:22;;;;;;;;;12.25;11.50;;;;;12.45;53.36;102090.44;5095423;27;45424;-51
2021/10/12 07:20:47;;;;;;;;;14.25;11.25;;;;;12.46;53.33;102084.31;5092311;27;45373;-54
2021/10/12 07:23:12;;;;;;;;;12.00;11.50;;;;;12.42;53.36;102070.25;5094843;27;45624;-52
2021/10/12 07:25:38;;;;;;;;;12.75;11.00;;;;;12.45;53.41;102079.91;5089235;27;46262;-51
2021/10/12 07:28:03;;;;;;;;;15.50;13.00;;;;;12.48;53.36;102079.91;5095445;27;45319;-53
2021/10/12 07:30:29;;;;;;;;;12.75;11.50;;;;;12.48;53.67;102080.78;5091386;27;45280;-53
2021/10/12 07:32:54;;;;;;;;;15.75;13.25;;;;;12.45;53.41;102072.00;5095556;27;45322;-53
2021/10/12 07:35:19;;;;;;;;;20.75;14.50;;;;;12.50;53.57;102067.59;5091033;27;45347;-53
2021/10/12 07:37:45;;;;;;;;;13.00;13.00;;;;;12.52;53.50;102071.13;5095158;27;45359;-50
2021/10/12 07:40:12;;;;;;;;;14.75;12.75;;;;;12.52;53.47;102071.97;5092221;27;45283;-54
2021/10/12 07:42:37;;;;;;;;;16.75;12.50;;;;;12.53;53.74;102070.25;5100922;27;45383;-53
2021/10/12 07:45:03;;;;;;;;;13.25;11.50;;;;;12.57;53.43;102068.50;5092024;27;46220;-51
2021/10/12 07:47:29;;;;;;;;;14.25;12.25;;;;;12.57;53.59;102069.34;5094400;27;45312;-53
2021/10/12 07:49:54;;;;;;;;;15.50;14.00;;;;;12.60;53.90;102063.19;5098704;27;45224;-54
2021/10/12 07:52:20;;;;;;;;;18.25;15.00;;;;;12.61;53.60;102076.38;5082325;27;46041;-54
2021/10/12 07:54:46;;;;;;;;;17.00;14.75;;;;;12.63;53.57;102073.75;5084140;27;46202;-53
2021/10/12 07:57:17;;;;;;;;;17.25;12.00;;;;;12.66;53.90;102068.47;5094143;27;45316;-50
2021/10/12 07:59:44;;;;;;;;;16.75;12.00;;;;;12.67;53.74;102065.81;5092303;27;45334;-54
2021/10/12 08:02:13;;;;;;;;;14.75;13.25;;;;;12.73;53.68;102066.69;5095151;27;45465;-52
2021/10/12 08:04:40;;;;;;;;;15.75;15.25;;;;;12.74;53.85;102071.97;5091563;27;47377;-54
2021/10/12 08:07:06;;;;;;;;;17.25;16.00;;;;;12.79;53.68;102062.28;5091582;27;45230;-55
2021/10/12 08:09:31;;;;;;;;;16.25;13.75;;;;;12.81;54.09;102062.28;5090444;27;45264;-53
2021/10/12 08:11:57;;;;;;;;;18.50;15.50;;;;;12.88;53.85;102064.03;5096098;27;45510;-54
2021/10/12 08:14:24;;;;;;;;;13.00;12.00;;;;;12.92;53.99;102049.94;5095429;27;46281;-53
2021/10/12 08:16:50;;;;;;;;;15.75;13.75;;;;;12.96;54.02;102056.09;5100308;27;45291;-52
2021/10/12 08:19:15;;;;;;;;;15.50;13.50;;;;;13.00;53.78;102055.19;5091962;27;45370;-52
2021/10/12 08:21:40;;;;;;;;;14.75;13.00;;;;;13.05;54.09;102052.53;5096416;27;45487;-52
2021/10/12 08:24:06;;;;;;;;;18.50;17.00;;;;;13.10;53.86;102053.41;5092080;27;45334;-53
2021/10/12 08:26:32;;;;;;;;;17.25;15.25;;;;;13.12;54.12;102054.28;5096736;27;45449;-54
2021/10/12 08:28:58;;;;;;;;;15.75;13.50;;;;;13.19;54.28;102058.63;5090918;27;45353;-53
2021/10/12 08:31:24;;;;;;;;;13.00;12.50;;;;;13.25;53.99;102055.97;5082244;27;45578;-54
2021/10/12 08:33:50;;;;;;;;;17.25;15.75;;;;;13.30;54.01;102046.25;5095649;27;46178;-53
2021/10/12 08:36:16;;;;;;;;;18.00;17.75;;;;;13.37;54.29;102055.06;5095566;27;45318;-54
2021/10/12 08:38:43;;;;;;;;;12.25;12.25;;;;;13.44;53.94;102050.63;5091313;27;45350;-54
2021/10/12 08:41:09;;;;;;;;;17.75;14.75;;;;;13.51;54.09;102044.44;5095893;27;45423;-54
2021/10/12 08:43:36;;;;;;;;;16.75;13.00;;;;;13.57;54.30;102041.75;5093085;27;46389;-54
2021/10/12 08:46:03;;;;;;;;;15.25;15.25;;;;;13.64;53.72;102029.38;5070993;27;45351;-52
2021/10/12 08:48:32;;;;;;;;;19.75;16.00;;;;;13.74;53.96;102035.50;5086821;27;45355;-50
2021/10/12 08:50:59;;;;;;;;;15.25;14.50;;;;;13.82;54.22;102034.56;5100207;27;45551;-54
2021/10/12 08:53:25;;;;;;;;;16.75;15.50;;;;;13.93;53.90;102025.66;5090392;27;45762;-53
2021/10/12 08:55:50;;;;;;;;;17.75;16.25;;;;;14.02;54.05;102022.94;5095493;27;45223;-54
2021/10/12 08:58:15;;;;;;;;;19.75;17.50;;;;;14.10;54.08;102017.59;5090527;27;45480;-55
2021/10/12 09:00:41;;;;;;;;;16.75;14.75;;;;;14.20;53.81;102015.75;5077475;27;45481;-52
2021/10/12 09:06:02;;;;;;;;;17.00;14.25;;;;;14.42;53.86;102027.00;5095734;27;45275;-54
2021/10/12 09:08:28;;;;;;;;;13.25;10.25;;;;;14.51;53.99;102013.69;5092742;27;45362;-52
2021/10/12 09:10:55;;;;;;;;;16.25;14.50;;;;;14.61;54.16;102015.31;5093088;27;45445;-54
2021/10/12 09:13:21;;;;;;;;;21.25;17.00;;;;;14.71;53.91;102010.84;5092916;27;45256;-53
2021/10/12 09:16:05;;;;;;;;;20.25;17.25;;;;;14.86;53.98;102011.56;5072862;27;45280;-55
2021/10/12 09:18:46;;;;;;;;;21.00;18.75;;;;;15.00;54.01;101998.19;5086947;27;45357;-55
2021/10/12 09:21:33;;;;;;;;;20.75;19.00;;;;;15.12;53.57;102000.66;5095438;27;45866;-54
2021/10/12 09:24:08;;;;;;;;;20.50;17.50;;;;;15.23;53.29;101993.44;5099635;27;45394;-55
2021/10/12 09:26:36;;;;;;;;;19.75;16.50;;;;;15.33;53.55;101991.53;5094542;27;45328;-55
2021/10/12 09:31:50;;;;;;;;;20.25;18.25;;;;;15.56;53.30;101985.91;5096844;27;45700;-55
2021/10/12 09:34:18;;;;;;;;;21.75;17.50;;;;;15.67;53.49;101991.06;5095656;27;45192;-53
2021/10/12 09:36:48;;;;;;;;;20.25;17.00;;;;;15.78;53.48;101990.88;5094800;27;45512;-54
2021/10/12 09:39:27;;;;;;;;;23.25;18.75;;;;;15.90;53.44;101989.84;5096480;27;45161;-54
2021/10/12 09:41:58;;;;;;;;;20.75;15.25;;;;;16.00;53.20;101982.59;5093355;27;45429;-54
2021/10/12 09:44:24;;;;;;;;;20.75;18.75;;;;;16.09;53.16;101985.09;5093799;27;45450;-56
2021/10/12 09:46:52;;;;;;;;;15.75;15.25;;;;;16.19;53.00;101981.38;5095067;27;45436;-54
2021/10/12 09:49:22;;;;;;;;;20.25;18.50;;;;;16.31;53.06;101976.75;5093396;27;45326;-55
2021/10/12 09:52:10;;;;;;;;;20.25;19.00;;;;;16.42;52.93;101985.38;5097916;27;45233;-54
2021/10/12 09:54:38;;;;;;;;;14.75;14.75;;;;;16.52;53.18;101976.31;5096308;27;46160;-54
2021/10/12 09:57:05;;;;;;;;;18.75;18.75;;;;;16.63;52.77;101975.22;5095210;27;45232;-56
2021/10/12 09:59:32;;;;;;;;;18.00;16.75;;;;;16.70;52.84;101983.06;5096060;27;45302;-54
2021/10/12 10:01:59;;;;;;;;;18.75;16.25;;;;;16.80;52.76;101983.72;5095453;27;45417;-55
2021/10/12 10:04:28;;;;;;;;;17.75;16.25;;;;;16.92;52.73;101976.44;5094165;27;47219;-56
2021/10/12 10:07:04;;;;;;;;;20.75;15.75;;;;;17.03;52.64;101975.34;5096125;27;45336;-56
2021/10/12 10:09:30;;;;;;;;;15.50;14.00;;;;;17.14;52.43;101974.22;5093118;27;45497;-55
2021/10/12 10:11:58;;;;;;;;;17.50;15.50;;;;;17.25;52.45;101966.88;5088898;27;45166;-56
2021/10/12 10:14:25;;;;;;;;;15.25;14.50;;;;;17.36;52.57;101962.19;5092482;27;45298;-55
2021/10/12 10:16:57;;;;;;;;;14.50;13.00;;;;;17.49;52.38;101962.78;5101848;27;45426;-55
2021/10/12 10:19:26;;;;;;;;;24.00;14.75;;;;;17.62;52.26;101952.75;5092173;27;45294;-55
2021/10/12 10:21:51;;;;;;;;;17.00;17.00;;;;;17.77;52.41;101962.09;5097141;27;45461;-53
2021/10/12 10:24:37;;;;;;;;;18.00;12.25;;;;;17.91;52.16;101958.22;5092208;27;46129;-54
2021/10/12 10:27:02;;;;;;;;;12.75;10.50;;;;;18.02;52.09;101953.53;5094373;27;45338;-53
2021/10/12 10:29:36;;;;;;;;;12.50;10.50;;;;;18.09;52.25;101949.81;5081881;27;45287;-54
2021/10/12 10:32:12;;;;;;;;;9.25;9.25;;;;;18.24;51.93;101956.50;5098241;27;45486;-55
2021/10/12 10:34:57;;;;;;;;;7.00;6.25;;;;;18.31;51.89;101946.56;5093162;27;46299;-55
2021/10/12 10:37:26;;;;;;;;;10.00;10.00;;;;;18.39;51.83;101951.66;5094227;27;45336;-53
2021/10/12 10:39:58;;;;;;;;;13.75;10.00;;;;;18.44;51.72;101955.94;5078198;27;45387;-54
2021/10/12 10:42:26;;;;;;;;;12.50;11.75;;;;;18.48;51.66;101943.44;5095798;27;45512;-54
2021/10/12 10:45:00;;;;;;;;;10.00;7.50;;;;;18.52;51.40;101943.28;5088003;27;45353;-54
2021/10/12 10:47:40;;;;;;;;;16.00;16.00;;;;;18.57;51.18;101937.84;5079436;27;45340;-52
2021/10/12 10:50:28;;;;;;;;;13.00;9.50;;;;;18.59;51.19;101932.47;5099022;27;45434;-54
2021/10/12 10:52:56;;;;;;;;;9.50;9.00;;;;;18.63;51.04;101931.47;5096062;27;45372;-54
2021/10/12 10:55:24;;;;;;;;;11.00;9.75;;;;;18.65;51.22;101934.94;5092973;27;46322;-53
2021/10/12 10:58:08;;;;;;;;;8.50;8.00;;;;;18.68;50.70;101935.72;5095441;27;45421;-54
2021/10/12 11:00:39;;;;;;;;;7.25;7.00;;;;;18.71;50.72;101931.25;5096665;27;45226;-55
2021/10/12 11:03:06;;;;;;;;;9.00;7.50;;;;;18.73;50.61;101938.28;5093188;27;45565;-55
2021/10/12 11:05:45;;;;;;;;;7.75;6.00;;;;;18.76;51.09;101938.16;5097504;27;45309;-54
2021/10/12 11:08:10;;;;;;;;;7.25;7.00;;;;;18.79;50.86;101937.19;5087540;27;45344;-54
2021/10/12 11:10:36;;;;;;;;;5.25;3.25;;;;;18.81;50.71;101930.06;5076541;27;45310;-54
2021/10/12 11:13:02;;;;;;;;;8.50;8.00;;;;;18.83;50.74;101922.91;5094880;27;45439;-55
2021/10/12 11:15:27;;;;;;;;;8.25;7.50;;;;;18.89;50.26;101916.50;5093277;27;45321;-55
2021/10/12 11:18:03;;;;;;;;;9.25;8.00;;;;;18.94;50.43;101917.25;5094760;27;45479;-52
2021/10/12 11:20:43;;;;;;;;;11.50;9.00;;;;;19.02;50.23;101923.25;5094734;27;45324;-53
2021/10/12 11:23:10;;;;;;;;;11.75;8.75;;;;;19.08;50.31;101915.06;5091217;27;45530;-53